Time;durP1;ratioP1;P1;durP2;ratioP2;P2;SDS_P1;SDS_P2;PMS_P1;PMS_P2;Temp;Humidity;BMP_temperature;BMP_pressure;BME280_temperature;BME280_humidity;BME280_pressure;Samples;Min_cycle;Max_cycle;Signal;HPM_P1;HPM_P2
2022/10/17 00:01:11;;;;;;;6.32;4.70;;;13.10;99.90;;;;;;5010668;28;20032;-73
2022/10/17 00:03:38;;;;;;;7.18;4.20;;;13.10;99.90;;;;;;5014016;28;20030;-72
2022/10/17 00:06:06;;;;;;;5.75;4.18;;;13.00;99.90;;;;;;5011659;28;20018;-72
2022/10/17 00:08:31;;;;;;;10.70;4.60;;;12.90;99.90;;;;;;5002443;28;20053;-72
2022/10/17 00:11:03;;;;;;;5.40;4.00;;;13.00;99.90;;;;;;5000898;28;20403;-72
2022/10/17 00:13:28;;;;;;;6.45;3.33;;;13.00;99.90;;;;;;5002702;28;20392;-72
2022/10/17 00:15:54;;;;;;;12.80;3.97;;;13.10;99.90;;;;;;5007557;28;20105;-72
2022/10/17 00:18:20;;;;;;;6.43;3.50;;;13.10;99.90;;;;;;5004187;28;20172;-73
2022/10/17 00:20:45;;;;;;;5.30;3.75;;;13.20;99.90;;;;;;5000731;28;20041;-72
2022/10/17 00:23:11;;;;;;;3.90;3.50;;;13.10;99.90;;;;;;5003806;28;20028;-74
2022/10/17 00:25:36;;;;;;;7.18;4.05;;;13.20;99.90;;;;;;5007359;28;20054;-72
2022/10/17 00:28:02;;;;;;;10.15;4.25;;;13.20;99.90;;;;;;5002392;28;20026;-72
2022/10/17 00:30:28;;;;;;;5.93;3.58;;;13.30;99.90;;;;;;5000526;28;20029;-73
2022/10/17 00:32:54;;;;;;;5.82;4.13;;;13.20;99.90;;;;;;5002526;28;20057;-72
2022/10/17 00:35:20;;;;;;;5.13;4.15;;;13.30;99.90;;;;;;5005927;28;20477;-73
2022/10/17 00:37:45;;;;;;;6.57;4.13;;;13.40;99.90;;;;;;5002185;28;20537;-73
2022/10/17 00:40:11;;;;;;;6.80;4.20;;;13.40;99.90;;;;;;5000491;28;20045;-72
2022/10/17 00:42:36;;;;;;;5.07;4.38;;;13.40;99.90;;;;;;5003633;28;20025;-73
2022/10/17 00:45:15;;;;;;;6.13;4.78;;;13.30;99.90;;;;;;5005650;28;20069;-73
2022/10/17 00:47:43;;;;;;;4.97;4.47;;;13.30;99.90;;;;;;5003647;28;20049;-73
2022/10/17 00:50:09;;;;;;;7.30;4.43;;;13.30;99.90;;;;;;4999051;28;20071;-73
2022/10/17 00:52:35;;;;;;;12.52;4.65;;;13.30;99.90;;;;;;5000751;28;20051;-73
2022/10/17 00:55:09;;;;;;;9.68;4.18;;;13.20;99.90;;;;;;5006686;28;20077;-72
2022/10/17 00:57:35;;;;;;;9.23;4.07;;;13.20;99.90;;;;;;5006411;28;20084;-72
2022/10/17 01:00:08;;;;;;;10.27;4.38;;;13.20;99.90;;;;;;4993904;28;20030;-72
2022/10/17 01:02:33;;;;;;;6.35;4.20;;;13.20;99.90;;;;;;5006646;28;20029;-72
2022/10/17 01:04:59;;;;;;;6.43;4.50;;;13.20;99.90;;;;;;5000120;28;20030;-72
2022/10/17 01:07:27;;;;;;;6.03;4.60;;;13.20;99.90;;;;;;4998149;28;20034;-72
2022/10/17 01:09:53;;;;;;;6.63;4.10;;;13.20;99.90;;;;;;5004598;28;20026;-72
2022/10/17 01:12:24;;;;;;;5.97;4.55;;;13.20;99.90;;;;;;5006468;28;20021;-73
2022/10/17 01:14:49;;;;;;;9.27;4.63;;;13.20;99.90;;;;;;4993318;28;20030;-73
2022/10/17 01:17:39;;;;;;;5.60;4.07;;;13.20;99.90;;;;;;5006228;28;20033;-72
2022/10/17 01:20:22;;;;;;;9.52;4.20;;;13.20;99.90;;;;;;5003781;28;20037;-73
2022/10/17 01:23:16;;;;;;;7.30;4.50;;;13.10;99.90;;;;;;4998094;28;20112;-72
2022/10/17 01:25:48;;;;;;;4.88;4.07;;;13.10;99.90;;;;;;4998391;28;20037;-73
2022/10/17 01:28:38;;;;;;;6.05;4.60;;;13.10;99.90;;;;;;5001907;28;20029;-74
2022/10/17 01:31:14;;;;;;;6.10;4.57;;;13.20;99.90;;;;;;5000676;28;20022;-72
2022/10/17 01:34:02;;;;;;;7.20;4.30;;;13.20;99.90;;;;;;4999279;28;20051;-72
2022/10/17 01:36:39;;;;;;;12.13;5.80;;;13.20;99.90;;;;;;5000816;28;20038;-73
2022/10/17 01:39:14;;;;;;;7.47;4.82;;;13.10;99.90;;;;;;4999294;28;20032;-72
2022/10/17 01:41:39;;;;;;;6.47;4.78;;;13.10;99.90;;;;;;4997759;28;20076;-72
2022/10/17 01:44:08;;;;;;;7.70;4.47;;;13.10;99.90;;;;;;5003640;28;20026;-73
2022/10/17 01:46:40;;;;;;;6.80;4.13;;;13.10;99.90;;;;;;5004642;28;20405;-73
2022/10/17 01:49:08;;;;;;;8.18;4.60;;;13.20;99.90;;;;;;5000913;28;20491;-73
2022/10/17 01:51:46;;;;;;;6.20;4.22;;;13.20;99.90;;;;;;4992184;28;20030;-72
2022/10/17 01:54:24;;;;;;;6.30;4.53;;;13.10;99.90;;;;;;4992505;28;20057;-72
2022/10/17 01:56:55;;;;;;;9.23;5.07;;;13.20;99.90;;;;;;5011190;28;20033;-72
2022/10/17 01:59:30;;;;;;;7.75;5.18;;;13.10;99.90;;;;;;5012342;28;20039;-72
2022/10/17 02:01:58;;;;;;;8.38;5.07;;;13.10;99.90;;;;;;5003608;28;20026;-73
2022/10/17 02:04:25;;;;;;;5.80;5.20;;;13.20;99.90;;;;;;5004666;28;20026;-72
2022/10/17 02:06:50;;;;;;;7.15;4.82;;;13.10;99.90;;;;;;5000918;28;20105;-73
2022/10/17 02:09:16;;;;;;;5.85;4.63;;;13.20;99.90;;;;;;4997666;28;20121;-73
2022/10/17 02:11:51;;;;;;;6.80;4.93;;;13.20;99.90;;;;;;5003344;28;20575;-73
2022/10/17 02:14:54;;;;;;;7.90;5.53;;;13.30;99.90;;;;;;5004698;28;20073;-73
2022/10/17 02:17:57;;;;;;;10.02;7.35;;;13.20;99.90;;;;;;5005321;28;20038;-74
2022/10/17 02:20:29;;;;;;;7.93;5.50;;;13.10;99.90;;;;;;5005375;28;20471;-72
2022/10/17 02:23:07;;;;;;;8.45;5.65;;;13.20;99.90;;;;;;5000310;28;20135;-73
2022/10/17 02:26:16;;;;;;;11.48;7.35;;;12.90;99.90;;;;;;4998789;28;20101;-74
2022/10/17 02:29:08;;;;;;;8.38;5.40;;;12.90;99.90;;;;;;4975988;28;20042;-73
2022/10/17 02:31:48;;;;;;;6.75;5.03;;;12.70;99.90;;;;;;4993810;28;20050;-72
2022/10/17 02:34:19;;;;;;;9.10;7.10;;;12.80;99.90;;;;;;4999912;28;20586;-72
2022/10/17 02:36:50;;;;;;;7.93;5.28;;;12.80;99.90;;;;;;4996901;28;20034;-72
2022/10/17 02:39:17;;;;;;;8.40;5.15;;;12.50;99.90;;;;;;5001467;28;20130;-73
2022/10/17 02:41:44;;;;;;;8.80;6.00;;;12.50;99.90;;;;;;4998664;28;20391;-73
2022/10/17 02:44:10;;;;;;;7.55;5.03;;;12.50;99.90;;;;;;5002170;28;20022;-73
2022/10/17 02:46:38;;;;;;;6.70;5.40;;;12.60;99.90;;;;;;4993706;28;20026;-73
2022/10/17 02:49:17;;;;;;;6.63;5.05;;;12.60;99.90;;;;;;5001940;28;20019;-73
2022/10/17 02:52:08;;;;;;;6.88;5.60;;;12.70;99.90;;;;;;5005127;28;20026;-73
2022/10/17 02:54:46;;;;;;;10.27;6.90;;;12.70;99.90;;;;;;4990583;28;20046;-72
2022/10/17 02:57:26;;;;;;;8.52;5.70;;;12.70;99.90;;;;;;5000840;28;20042;-72
2022/10/17 02:59:53;;;;;;;6.22;5.07;;;12.80;99.90;;;;;;4998492;28;20029;-71
2022/10/17 03:02:19;;;;;;;8.27;6.57;;;12.80;99.90;;;;;;4999944;28;20119;-72
2022/10/17 03:04:45;;;;;;;7.55;6.28;;;12.80;99.90;;;;;;5004975;28;20429;-72
2022/10/17 03:07:11;;;;;;;7.10;5.60;;;12.80;99.90;;;;;;5003220;28;20072;-72
2022/10/17 03:09:37;;;;;;;8.07;5.20;;;12.70;99.90;;;;;;4993525;28;20022;-72
2022/10/17 03:12:03;;;;;;;9.73;4.82;;;12.70;99.90;;;;;;5003057;28;20029;-72
2022/10/17 03:14:29;;;;;;;6.15;4.82;;;12.70;99.90;;;;;;4998256;28;20034;-72
2022/10/17 03:16:54;;;;;;;7.18;5.32;;;12.70;99.90;;;;;;5003192;28;20026;-72
2022/10/17 03:19:20;;;;;;;14.55;6.00;;;12.60;99.90;;;;;;5007145;28;20134;-72
2022/10/17 03:21:45;;;;;;;11.48;5.70;;;12.50;99.90;;;;;;4994147;28;20039;-72
2022/10/17 03:24:11;;;;;;;7.47;5.45;;;12.40;99.90;;;;;;5008352;28;20066;-72
2022/10/17 03:26:36;;;;;;;10.38;6.25;;;12.50;99.90;;;;;;5006115;28;20062;-71
2022/10/17 03:29:02;;;;;;;14.52;5.78;;;12.50;99.90;;;;;;5010598;28;20023;-71
2022/10/17 03:31:28;;;;;;;9.15;6.40;;;12.40;99.90;;;;;;4994010;28;20026;-71
2022/10/17 03:33:53;;;;;;;8.07;5.50;;;12.40;99.90;;;;;;5008208;28;20026;-72
2022/10/17 03:36:19;;;;;;;7.53;5.47;;;12.30;99.90;;;;;;4995206;28;20022;-72
2022/10/17 03:38:46;;;;;;;7.88;5.45;;;12.40;99.90;;;;;;5008173;28;20081;-72
2022/10/17 03:41:12;;;;;;;8.15;6.00;;;12.40;99.90;;;;;;5003852;28;20128;-71
2022/10/17 03:43:38;;;;;;;12.00;5.75;;;12.30;99.90;;;;;;4999830;28;20040;-71
2022/10/17 03:46:04;;;;;;;10.43;5.82;;;12.20;99.90;;;;;;5014626;28;20498;-71
2022/10/17 03:48:30;;;;;;;10.23;6.82;;;12.10;99.90;;;;;;5001176;28;20026;-72
2022/10/17 03:51:04;;;;;;;13.73;7.70;;;12.20;99.90;;;;;;5004270;28;20380;-71
2022/10/17 03:53:30;;;;;;;10.38;5.95;;;12.20;99.90;;;;;;5006535;28;20117;-71
2022/10/17 03:55:56;;;;;;;14.43;8.48;;;12.10;99.90;;;;;;5005924;28;20584;-70
2022/10/17 03:58:22;;;;;;;9.98;6.78;;;12.10;99.90;;;;;;5001102;28;20034;-71
2022/10/17 04:00:48;;;;;;;10.05;6.88;;;12.00;99.90;;;;;;5013083;28;20048;-71
2022/10/17 04:03:13;;;;;;;9.77;6.32;;;12.10;99.90;;;;;;5001030;28;20036;-71
2022/10/17 04:05:39;;;;;;;12.95;7.80;;;12.00;99.90;;;;;;5001973;28;20037;-71
2022/10/17 04:08:04;;;;;;;12.90;7.68;;;12.10;99.90;;;;;;5007729;28;20022;-72
2022/10/17 04:10:30;;;;;;;17.73;8.10;;;12.20;99.90;;;;;;4994608;28;20030;-71
2022/10/17 04:12:55;;;;;;;16.13;8.25;;;12.20;99.90;;;;;;5007511;28;20369;-71
2022/10/17 04:15:21;;;;;;;14.55;8.15;;;12.20;99.90;;;;;;5006331;28;20018;-71
2022/10/17 04:17:47;;;;;;;11.68;7.70;;;12.20;99.90;;;;;;5000417;28;20028;-71
2022/10/17 04:20:12;;;;;;;9.95;7.68;;;12.20;99.90;;;;;;5002249;28;20034;-72
2022/10/17 04:22:38;;;;;;;13.38;7.38;;;12.20;99.90;;;;;;5007361;28;20031;-73
2022/10/17 04:25:04;;;;;;;10.93;7.60;;;12.30;99.90;;;;;;5005653;28;20034;-72
2022/10/17 04:27:29;;;;;;;14.25;7.55;;;12.30;99.90;;;;;;4999676;28;20076;-72
2022/10/17 04:29:55;;;;;;;9.20;6.43;;;12.30;99.90;;;;;;5013780;28;20030;-71
2022/10/17 04:32:20;;;;;;;7.78;6.10;;;12.30;99.90;;;;;;4995555;28;20026;-71
2022/10/17 04:34:49;;;;;;;8.95;5.55;;;12.40;99.90;;;;;;5004609;28;20034;-71
2022/10/17 04:37:15;;;;;;;7.18;6.47;;;12.40;99.90;;;;;;5000203;28;20121;-71
2022/10/17 04:39:40;;;;;;;8.38;5.70;;;12.30;99.90;;;;;;4999966;28;20065;-71
2022/10/17 04:42:06;;;;;;;10.73;5.50;;;12.40;99.90;;;;;;5007139;28;20076;-72
2022/10/17 04:44:32;;;;;;;10.30;5.75;;;12.40;99.90;;;;;;4993625;28;20035;-71
2022/10/17 04:46:58;;;;;;;10.35;7.18;;;12.40;99.90;;;;;;5006732;28;20026;-70
2022/10/17 04:49:24;;;;;;;7.35;6.05;;;12.30;99.90;;;;;;5006288;28;20075;-71
2022/10/17 04:51:49;;;;;;;9.27;5.95;;;12.10;99.90;;;;;;5007192;28;20132;-70
2022/10/17 04:54:15;;;;;;;9.48;5.40;;;12.10;99.90;;;;;;5006249;28;20092;-71
2022/10/17 04:56:40;;;;;;;9.68;5.78;;;12.20;99.90;;;;;;5007427;28;20494;-72
2022/10/17 04:59:06;;;;;;;8.82;5.93;;;12.20;99.90;;;;;;5005626;28;20022;-72
2022/10/17 05:01:31;;;;;;;6.13;5.53;;;12.20;99.90;;;;;;4999743;28;20034;-72
2022/10/17 05:03:57;;;;;;;6.93;5.70;;;12.20;99.90;;;;;;5007946;28;20172;-72
2022/10/17 05:06:24;;;;;;;10.52;6.68;;;12.20;99.90;;;;;;4995281;28;20062;-72
2022/10/17 05:08:50;;;;;;;8.70;6.47;;;12.10;99.90;;;;;;5005627;28;20032;-71
2022/10/17 05:11:20;;;;;;;8.60;5.75;;;12.20;99.90;;;;;;4994862;28;20101;-71
2022/10/17 05:13:55;;;;;;;7.90;5.75;;;12.20;99.90;;;;;;5004945;28;20026;-71
2022/10/17 05:16:22;;;;;;;9.93;6.13;;;12.20;99.90;;;;;;4998412;28;20040;-72
2022/10/17 05:18:49;;;;;;;7.88;5.55;;;12.00;99.90;;;;;;4999500;28;20023;-73
2022/10/17 05:21:14;;;;;;;6.28;5.25;;;12.00;99.90;;;;;;5012844;28;20165;-72
2022/10/17 05:23:40;;;;;;;7.68;6.00;;;12.00;99.90;;;;;;4999344;28;20035;-73
2022/10/17 05:26:05;;;;;;;10.63;5.80;;;12.00;99.90;;;;;;5004435;28;20048;-72
2022/10/17 05:28:31;;;;;;;9.63;7.25;;;12.10;99.90;;;;;;5005884;28;20021;-72
2022/10/17 05:30:56;;;;;;;9.60;5.78;;;12.10;99.90;;;;;;4998539;28;20117;-72
2022/10/17 05:33:22;;;;;;;7.80;6.40;;;12.10;99.90;;;;;;4999251;28;20034;-72
2022/10/17 05:35:48;;;;;;;8.32;6.18;;;12.10;99.90;;;;;;5006004;28;20022;-72
2022/10/17 05:38:13;;;;;;;10.48;6.07;;;12.10;99.90;;;;;;5005781;28;20033;-72
2022/10/17 05:40:39;;;;;;;14.70;8.75;;;12.10;99.90;;;;;;4999260;28;20104;-71
2022/10/17 05:43:05;;;;;;;8.82;7.10;;;12.00;99.90;;;;;;4999406;28;20080;-72
2022/10/17 05:45:30;;;;;;;12.60;6.97;;;12.00;99.90;;;;;;5004584;28;20383;-71
2022/10/17 05:47:56;;;;;;;13.60;7.72;;;12.00;99.90;;;;;;4992467;28;20026;-71
2022/10/17 05:50:23;;;;;;;8.57;5.90;;;12.00;99.90;;;;;;4992641;28;20066;-71
2022/10/17 05:55:16;;;;;;;7.63;6.18;;;12.00;99.90;;;;;;4999575;28;20046;-75
2022/10/17 05:57:42;;;;;;;9.70;7.65;;;12.00;99.90;;;;;;5003076;28;20079;-76
2022/10/17 06:00:08;;;;;;;8.90;6.72;;;11.90;99.90;;;;;;5006163;28;20095;-75
2022/10/17 06:02:33;;;;;;;10.80;7.28;;;11.80;99.90;;;;;;4999460;28;20057;-72
2022/10/17 06:04:59;;;;;;;11.23;7.03;;;11.70;99.90;;;;;;4986735;28;20058;-72
2022/10/17 06:07:24;;;;;;;9.73;6.65;;;11.70;99.90;;;;;;4992268;28;20030;-75
2022/10/17 06:09:50;;;;;;;10.90;7.05;;;11.80;99.90;;;;;;4992382;28;20046;-75
2022/10/17 06:12:15;;;;;;;10.15;6.78;;;11.90;99.90;;;;;;4991090;28;20023;-74
2022/10/17 06:14:41;;;;;;;11.00;6.93;;;12.00;99.90;;;;;;4979220;28;20146;-75
2022/10/17 06:17:07;;;;;;;7.50;5.90;;;12.00;99.90;;;;;;4992199;28;20031;-75
2022/10/17 06:19:32;;;;;;;16.00;7.65;;;12.20;99.90;;;;;;4992145;28;20026;-75
2022/10/17 06:21:58;;;;;;;9.10;6.65;;;12.30;99.90;;;;;;4992225;28;20034;-74
2022/10/17 06:24:23;;;;;;;8.85;6.30;;;12.30;99.90;;;;;;4986307;28;20030;-75
2022/10/17 06:26:49;;;;;;;9.00;5.25;;;12.40;99.90;;;;;;4985022;28;20029;-75
2022/10/17 06:29:15;;;;;;;8.45;5.53;;;12.50;99.90;;;;;;4979041;28;20029;-75
2022/10/17 06:31:41;;;;;;;7.15;5.57;;;12.70;99.90;;;;;;4980058;28;20019;-75
2022/10/17 06:34:06;;;;;;;7.10;4.90;;;12.80;99.90;;;;;;4991234;28;20400;-75
2022/10/17 06:36:32;;;;;;;7.88;5.22;;;12.90;99.90;;;;;;4980051;28;20480;-75
2022/10/17 06:38:57;;;;;;;6.70;4.72;;;13.00;99.90;;;;;;4991325;28;20404;-75
2022/10/17 06:41:24;;;;;;;7.53;4.88;;;13.00;99.90;;;;;;4979945;28;20035;-75
2022/10/17 06:43:49;;;;;;;7.78;5.35;;;13.10;99.90;;;;;;4991165;28;20025;-75
2022/10/17 06:46:16;;;;;;;8.93;4.72;;;13.20;99.90;;;;;;4978604;28;20472;-75
2022/10/17 06:48:42;;;;;;;11.25;5.85;;;13.20;99.90;;;;;;4985302;28;20019;-75
2022/10/17 06:51:10;;;;;;;8.45;5.90;;;13.20;99.90;;;;;;4987252;28;20026;-75
2022/10/17 06:53:36;;;;;;;10.48;5.28;;;13.10;99.90;;;;;;4988261;28;20420;-75
2022/10/17 06:56:03;;;;;;;6.75;5.55;;;13.10;99.90;;;;;;4989210;28;20105;-75
2022/10/17 06:58:32;;;;;;;6.30;5.07;;;13.20;99.90;;;;;;4982585;28;20031;-75
2022/10/17 07:01:09;;;;;;;6.45;5.05;;;13.20;99.90;;;;;;4995678;28;20030;-75
2022/10/17 07:03:35;;;;;;;5.43;4.90;;;13.40;99.90;;;;;;4986895;28;20155;-75
2022/10/17 07:06:01;;;;;;;8.07;4.85;;;13.30;99.90;;;;;;4991345;28;20739;-74
2022/10/17 07:08:27;;;;;;;7.43;5.22;;;13.40;99.90;;;;;;4995316;28;20035;-74
2022/10/17 07:10:53;;;;;;;6.78;5.53;;;13.40;99.90;;;;;;4995623;28;20026;-75
2022/10/17 07:13:19;;;;;;;6.85;5.15;;;13.40;99.90;;;;;;4994156;28;20065;-75
2022/10/17 07:15:45;;;;;;;7.20;5.55;;;13.50;99.90;;;;;;4995306;28;20491;-76
2022/10/17 07:18:11;;;;;;;7.72;5.78;;;13.50;99.90;;;;;;4993999;28;20018;-76
2022/10/17 07:20:36;;;;;;;6.32;5.20;;;13.50;99.90;;;;;;4982557;28;20031;-75
2022/10/17 07:23:02;;;;;;;10.15;7.63;;;13.60;99.90;;;;;;4995298;28;20503;-76
2022/10/17 07:25:28;;;;;;;104.68;66.63;;;13.70;99.90;;;;;;4995255;28;20030;-75
2022/10/17 07:27:54;;;;;;;250.30;160.70;;;13.80;99.90;;;;;;4995023;28;20018;-76
2022/10/17 07:30:20;;;;;;;225.38;162.20;;;13.80;99.90;;;;;;4993916;28;20369;-76
2022/10/17 07:32:46;;;;;;;133.75;110.40;;;14.00;99.90;;;;;;4985908;28;20027;-77
2022/10/17 07:35:13;;;;;;;54.05;38.08;;;14.00;99.90;;;;;;4988651;28;20468;-74
2022/10/17 07:37:39;;;;;;;68.70;56.15;;;14.40;99.90;;;;;;4983317;28;20030;-74
2022/10/17 07:40:06;;;;;;;20.40;16.02;;;14.10;99.90;;;;;;4993595;28;20539;-76
2022/10/17 07:42:34;;;;;;;16.23;11.25;;;14.20;99.90;;;;;;4993522;28;20480;-76
2022/10/17 07:45:00;;;;;;;13.30;8.55;;;14.20;99.90;;;;;;4981588;28;20042;-76
2022/10/17 07:47:26;;;;;;;13.45;11.95;;;14.30;99.90;;;;;;4985414;28;20023;-77
2022/10/17 07:49:51;;;;;;;10.57;6.28;;;14.40;99.90;;;;;;4986959;28;20045;-76
2022/10/17 07:52:17;;;;;;;8.05;5.35;;;14.50;99.90;;;;;;4984705;28;20535;-77
2022/10/17 07:54:43;;;;;;;7.45;5.03;;;14.50;99.90;;;;;;4981735;28;20034;-76
2022/10/17 07:57:09;;;;;;;9.20;5.25;;;14.70;99.90;;;;;;4983922;28;20023;-77
2022/10/17 07:59:36;;;;;;;7.00;4.13;;;14.70;99.90;;;;;;4988431;28;20031;-77
2022/10/17 08:02:02;;;;;;;6.88;3.88;;;14.80;99.90;;;;;;4983364;28;20030;-76
2022/10/17 08:04:28;;;;;;;9.07;8.13;;;15.00;99.90;;;;;;4980295;28;20476;-77
2022/10/17 08:06:54;;;;;;;7.72;4.88;;;15.10;99.90;;;;;;4985265;28;20027;-76
2022/10/17 08:09:19;;;;;;;5.80;4.00;;;15.20;99.90;;;;;;4988247;28;20030;-77
2022/10/17 08:11:45;;;;;;;6.65;4.57;;;15.30;99.90;;;;;;4982733;28;20064;-76
2022/10/17 08:14:12;;;;;;;9.48;4.35;;;15.40;99.90;;;;;;4980083;28;20034;-77
2022/10/17 08:16:38;;;;;;;5.50;4.10;;;15.40;99.90;;;;;;4994315;28;20464;-77
2022/10/17 08:19:04;;;;;;;7.85;4.00;;;15.50;99.90;;;;;;4979805;28;20023;-77
2022/10/17 08:21:29;;;;;;;4.93;3.38;;;15.60;99.90;;;;;;4985369;28;20035;-77
2022/10/17 08:23:56;;;;;;;5.45;3.58;;;15.70;99.90;;;;;;4987857;28;20027;-77
2022/10/17 08:26:22;;;;;;;6.63;3.65;;;15.70;99.90;;;;;;4988420;28;20112;-77
2022/10/17 08:28:48;;;;;;;7.57;3.92;;;15.90;99.90;;;;;;4998001;28;20083;-76
2022/10/17 08:31:19;;;;;;;16.02;8.38;;;15.90;99.90;;;;;;4994076;28;20023;-76
2022/10/17 08:33:46;;;;;;;6.45;3.90;;;16.00;99.90;;;;;;4979940;28;20030;-76
2022/10/17 08:36:14;;;;;;;5.57;3.22;;;16.20;99.90;;;;;;4994896;28;20478;-77
2022/10/17 08:38:42;;;;;;;4.60;3.03;;;16.20;99.90;;;;;;4977858;28;20037;-76
2022/10/17 08:41:28;;;;;;;5.38;2.80;;;16.20;99.90;;;;;;4983080;28;20026;-78
2022/10/17 08:44:15;;;;;;;5.63;2.80;;;16.30;99.90;;;;;;4981035;28;20058;-77
2022/10/17 08:46:44;;;;;;;6.50;3.00;;;16.40;99.90;;;;;;4979529;28;20027;-77
2022/10/17 08:49:24;;;;;;;9.07;3.75;;;16.50;99.90;;;;;;4984316;28;20046;-77
2022/10/17 08:51:56;;;;;;;9.15;4.40;;;16.50;99.90;;;;;;4987576;28;20042;-75
2022/10/17 08:54:31;;;;;;;6.90;4.30;;;16.50;99.90;;;;;;4985844;28;20034;-76
2022/10/17 08:56:57;;;;;;;8.18;4.82;;;16.60;99.90;;;;;;4974102;28;20031;-77
2022/10/17 08:59:28;;;;;;;9.40;4.95;;;16.60;99.90;;;;;;4987111;28;20031;-76
2022/10/17 09:02:33;;;;;;;7.32;4.55;;;16.70;99.90;;;;;;4993545;28;20044;-75
2022/10/17 09:05:20;;;;;;;6.88;4.72;;;16.60;99.90;;;;;;4981009;28;20030;-77
2022/10/17 09:07:53;;;;;;;9.27;4.45;;;16.70;99.90;;;;;;4980277;28;20022;-76
2022/10/17 09:10:30;;;;;;;6.95;4.40;;;16.70;99.90;;;;;;4981494;28;20476;-77
2022/10/17 09:13:14;;;;;;;6.13;4.00;;;16.70;99.90;;;;;;4986515;28;20503;-77
2022/10/17 09:15:46;;;;;;;6.82;3.97;;;16.80;99.90;;;;;;4988234;28;20042;-76
2022/10/17 09:18:35;;;;;;;6.50;4.05;;;16.80;99.90;;;;;;4993029;28;20026;-76
2022/10/17 09:21:03;;;;;;;6.07;3.97;;;16.90;99.90;;;;;;4988157;28;20092;-77
2022/10/17 09:24:00;;;;;;;7.80;3.88;;;16.90;99.90;;;;;;4984355;28;20483;-76
2022/10/17 09:26:26;;;;;;;6.30;3.55;;;17.00;99.90;;;;;;4983497;28;20034;-77
2022/10/17 09:28:59;;;;;;;6.00;3.42;;;17.10;99.90;;;;;;4986652;28;20038;-78
2022/10/17 09:31:31;;;;;;;7.22;3.50;;;17.20;99.90;;;;;;4984203;28;20022;-77
2022/10/17 09:34:00;;;;;;;6.72;3.50;;;17.30;99.90;;;;;;4980449;28;20053;-78
2022/10/17 09:36:34;;;;;;;6.72;3.60;;;17.20;99.90;;;;;;4981213;28;20022;-77
2022/10/17 09:39:04;;;;;;;8.23;3.28;;;17.50;99.90;;;;;;4986429;28;20023;-77
2022/10/17 09:41:35;;;;;;;8.35;3.53;;;17.90;99.90;;;;;;4986487;28;20074;-78
2022/10/17 09:44:34;;;;;;;7.13;3.67;;;17.70;99.90;;;;;;4972342;28;20093;-76
2022/10/17 09:47:27;;;;;;;12.38;3.90;;;17.80;99.90;;;;;;4991168;28;20026;-76
2022/10/17 09:49:53;;;;;;;7.68;4.15;;;18.00;99.90;;;;;;4994062;28;20392;-76
2022/10/17 09:52:32;;;;;;;7.63;3.40;;;18.00;99.90;;;;;;4992716;28;20510;-76
2022/10/17 09:55:19;;;;;;;7.78;3.78;;;18.10;99.90;;;;;;4992381;28;20034;-76
2022/10/17 09:58:03;;;;;;;8.30;3.70;;;18.10;99.90;;;;;;4992277;28;20076;-76
2022/10/17 10:00:32;;;;;;;5.25;3.55;;;18.30;99.90;;;;;;4973271;28;20082;-77
2022/10/17 10:03:18;;;;;;;11.35;3.75;;;18.30;99.90;;;;;;4986163;28;20556;-77
2022/10/17 10:06:19;;;;;;;7.82;3.45;;;18.40;99.90;;;;;;4984705;28;20488;-75
2022/10/17 10:08:50;;;;;;;5.53;3.72;;;18.50;99.90;;;;;;4983654;28;20073;-76
2022/10/17 10:11:17;;;;;;;6.38;3.30;;;18.60;99.90;;;;;;4992393;28;20076;-75
2022/10/17 10:13:45;;;;;;;8.48;3.17;;;18.90;99.90;;;;;;4992342;28;20030;-76
2022/10/17 10:16:28;;;;;;;7.60;2.78;;;19.10;99.90;;;;;;4978166;28;20040;-76
2022/10/17 10:18:54;;;;;;;6.65;2.80;;;19.10;99.90;;;;;;4991401;28;20038;-76
2022/10/17 10:21:25;;;;;;;6.95;3.08;;;19.10;99.90;;;;;;4972890;28;20026;-76
2022/10/17 10:24:08;;;;;;;5.15;2.97;;;19.40;99.90;;;;;;4972748;28;20046;-76
2022/10/17 10:26:47;;;;;;;4.72;2.58;;;19.60;99.90;;;;;;4984710;28;20022;-76
2022/10/17 10:29:33;;;;;;;5.65;2.58;;;19.60;99.90;;;;;;4990620;28;20015;-77
2022/10/17 10:32:10;;;;;;;5.00;3.17;;;19.60;99.90;;;;;;4988758;28;20030;-76
2022/10/17 10:34:38;;;;;;;4.10;2.72;;;19.60;99.90;;;;;;4985224;28;20087;-77
2022/10/17 10:37:18;;;;;;;7.13;3.47;;;20.00;99.90;;;;;;4982981;28;20120;-77
2022/10/17 10:39:49;;;;;;;3.95;2.92;;;20.10;99.90;;;;;;4996158;28;20030;-76
2022/10/17 10:42:31;;;;;;;4.93;3.22;;;19.90;99.90;;;;;;4995788;28;20037;-75
2022/10/17 10:45:17;;;;;;;5.82;3.50;;;20.10;99.90;;;;;;4995055;28;20153;-77
2022/10/17 10:47:58;;;;;;;9.27;3.50;;;20.10;99.90;;;;;;4985081;28;20015;-77
2022/10/17 10:50:52;;;;;;;5.53;3.13;;;20.60;99.90;;;;;;4989470;28;20467;-77
2022/10/17 10:53:48;;;;;;;5.97;3.55;;;20.60;99.90;;;;;;4986162;28;20057;-76
2022/10/17 10:56:33;;;;;;;5.10;3.47;;;20.70;99.90;;;;;;4990439;28;20076;-77
2022/10/17 10:59:07;;;;;;;6.82;3.22;;;20.70;99.90;;;;;;4984979;28;20054;-76
2022/10/17 11:01:51;;;;;;;5.30;2.42;;;20.70;99.90;;;;;;4990519;28;20027;-77
2022/10/17 11:04:38;;;;;;;3.58;2.05;;;21.10;99.90;;;;;;4987991;28;20027;-77
2022/10/17 11:07:15;;;;;;;3.00;2.35;;;21.10;99.90;;;;;;4986418;28;20025;-77
2022/10/17 11:09:59;;;;;;;4.82;2.05;;;21.00;99.90;;;;;;4981418;28;20113;-78
2022/10/17 11:13:00;;;;;;;2.65;2.22;;;20.80;99.90;;;;;;4994476;28;20025;-77
2022/10/17 11:15:39;;;;;;;3.42;2.10;;;21.10;99.90;;;;;;4980434;28;20026;-78
2022/10/17 11:18:25;;;;;;;4.10;2.20;;;21.20;99.90;;;;;;4983420;28;20050;-77
2022/10/17 11:21:02;;;;;;;6.72;2.45;;;21.30;99.90;;;;;;4981255;28;20511;-77
2022/10/17 11:23:50;;;;;;;6.10;2.35;;;21.70;99.90;;;;;;4995204;28;20427;-77
2022/10/17 11:26:25;;;;;;;5.07;2.42;;;21.30;99.90;;;;;;4983824;28;20030;-78
2022/10/17 11:28:55;;;;;;;7.00;2.05;;;21.50;99.90;;;;;;4982541;28;20476;-76
2022/10/17 11:31:26;;;;;;;3.42;2.10;;;21.60;99.90;;;;;;4986013;28;20031;-77
2022/10/17 11:34:00;;;;;;;5.35;2.78;;;21.60;99.90;;;;;;4992870;28;20446;-77
2022/10/17 11:36:33;;;;;;;5.97;2.15;;;22.00;99.90;;;;;;4985958;28;20033;-75
2022/10/17 11:39:04;;;;;;;4.43;2.25;;;22.00;99.90;;;;;;4994936;28;20024;-76
2022/10/17 11:41:45;;;;;;;4.70;2.45;;;22.20;99.90;;;;;;4995954;28;20502;-77
2022/10/17 11:44:33;;;;;;;4.88;2.70;;;22.90;99.90;;;;;;4995533;28;20026;-76
2022/10/17 11:47:30;;;;;;;3.58;2.38;;;22.90;99.90;;;;;;4995772;28;20022;-76
2022/10/17 11:50:23;;;;;;;4.43;1.95;;;22.90;99.90;;;;;;4995648;28;20014;-74
2022/10/17 11:52:55;;;;;;;5.63;2.13;;;23.10;99.90;;;;;;4986122;28;20027;-75
2022/10/17 11:55:24;;;;;;;3.75;2.60;;;23.30;99.90;;;;;;4982013;28;20030;-74
2022/10/17 11:58:08;;;;;;;4.60;2.75;;;23.50;99.90;;;;;;4994285;28;20026;-75
2022/10/17 12:00:53;;;;;;;5.20;2.65;;;23.40;99.90;;;;;;4993976;28;20026;-75
2022/10/17 12:03:56;;;;;;;4.50;2.47;;;23.00;99.90;;;;;;4988965;28;20030;-75
2022/10/17 12:06:48;;;;;;;4.13;2.40;;;22.90;99.90;;;;;;4991640;28;20031;-75
2022/10/17 12:09:37;;;;;;;4.68;2.92;;;22.80;99.90;;;;;;5004806;28;20023;-75
2022/10/17 12:12:03;;;;;;;4.93;2.72;;;22.70;99.90;;;;;;4985692;28;20019;-75
2022/10/17 12:14:47;;;;;;;5.13;2.85;;;22.80;99.90;;;;;;4989353;28;20106;-75
2022/10/17 12:17:35;;;;;;;4.25;2.80;;;22.90;99.90;;;;;;4986455;28;20113;-75
2022/10/17 12:20:19;;;;;;;4.25;2.80;;;22.80;99.90;;;;;;4985898;28;20495;-75
2022/10/17 12:23:07;;;;;;;5.18;2.70;;;22.60;99.90;;;;;;4981670;28;20614;-75
2022/10/17 12:25:38;;;;;;;6.13;2.50;;;22.50;99.90;;;;;;4979922;28;20046;-78
2022/10/17 12:28:13;;;;;;;6.28;2.75;;;22.50;99.90;;;;;;4983463;28;20082;-77
2022/10/17 12:31:01;;;;;;;4.43;2.80;;;22.50;99.90;;;;;;4986451;28;20058;-77
2022/10/17 12:33:31;;;;;;;3.88;3.00;;;22.60;99.90;;;;;;4987709;28;20038;-78
2022/10/17 12:36:16;;;;;;;8.35;2.90;;;22.40;99.90;;;;;;4983641;28;20038;-77
2022/10/17 12:38:45;;;;;;;6.70;3.22;;;22.40;99.90;;;;;;4993716;28;20023;-75
2022/10/17 12:41:11;;;;;;;4.25;2.97;;;22.40;99.90;;;;;;4993982;28;20118;-76
2022/10/17 12:43:44;;;;;;;3.25;2.95;;;22.50;99.90;;;;;;4993668;28;20109;-76
2022/10/17 12:46:11;;;;;;;8.98;2.97;;;22.70;99.90;;;;;;4993916;28;20031;-75
2022/10/17 12:48:36;;;;;;;3.58;2.90;;;22.90;99.90;;;;;;4986500;28;20023;-76
2022/10/17 12:51:16;;;;;;;3.35;3.05;;;23.20;99.90;;;;;;4987318;28;20076;-75
2022/10/17 12:53:45;;;;;;;5.80;3.10;;;23.60;99.90;;;;;;4982499;28;20104;-75
2022/10/17 12:56:13;;;;;;;5.97;3.05;;;23.60;99.90;;;;;;4980850;28;20516;-75
2022/10/17 12:58:44;;;;;;;3.65;3.10;;;24.20;99.90;;;;;;4984133;28;20489;-75
2022/10/17 13:01:17;;;;;;;5.85;3.30;;;24.90;99.90;;;;;;4990666;28;20507;-74
2022/10/17 13:03:46;;;;;;;4.55;3.20;;;25.70;99.90;;;;;;4993322;28;20815;-75
2022/10/17 13:06:21;;;;;;;4.25;3.30;;;25.90;99.90;;;;;;4993288;28;20178;-74
2022/10/17 13:08:57;;;;;;;4.87;3.17;;;26.00;99.90;;;;;;4982316;28;20485;-75
2022/10/17 13:11:26;;;;;;;4.10;3.45;;;26.00;99.90;;;;;;4987608;28;20030;-75